createdAt,value
2019-03-25T00:02:17.600Z,44.43
2019-03-25T00:04:47.890Z,43.27
2019-03-25T00:07:18.290Z,46.63
2019-03-25T00:09:48.297Z,46.27
2019-03-25T00:12:18.448Z,45.47
2019-03-25T00:14:48.604Z,43.83
2019-03-25T00:17:18.604Z,42.17
2019-03-25T00:19:48.576Z,48.07
2019-03-25T00:22:18.597Z,45.07
2019-03-25T00:24:48.602Z,46.60
2019-03-25T00:27:18.584Z,46.77
2019-03-25T00:29:48.577Z,47.83
2019-03-25T00:32:18.559Z,50.43
2019-03-25T00:34:48.538Z,53.43
2019-03-25T00:37:18.575Z,49.33
2019-03-25T00:39:48.562Z,50.90
2019-03-25T00:42:18.536Z,51.53
2019-03-25T00:44:48.555Z,52.13
2019-03-25T00:47:18.520Z,53.97
2019-03-25T00:49:48.518Z,53.77
2019-03-25T00:52:18.473Z,54.43
2019-03-25T00:54:50.132Z,53.60
2019-03-25T00:57:20.123Z,52.23
2019-03-25T00:59:50.113Z,53.67
2019-03-25T01:02:20.137Z,50.47
2019-03-25T01:04:50.577Z,53.03
2019-03-25T01:07:20.756Z,50.17
2019-03-25T01:09:50.740Z,50.67
2019-03-25T01:12:20.732Z,50.27
2019-03-25T01:14:50.734Z,49.80
2019-03-25T01:17:20.803Z,48.67
2019-03-25T01:19:51.005Z,47.90
2019-03-25T01:22:21.080Z,46.97
2019-03-25T01:25:01.439Z,47.03
2019-03-25T01:27:22.684Z,45.47
2019-03-25T01:29:52.714Z,42.97
2019-03-25T01:32:22.722Z,46.30
2019-03-25T01:34:52.728Z,44.30
2019-03-25T01:37:22.724Z,44.17
2019-03-25T01:39:52.682Z,42.30
2019-03-25T01:42:22.700Z,42.40
2019-03-25T01:44:52.692Z,43.90
2019-03-25T01:47:22.653Z,42.57
2019-03-25T01:49:52.779Z,43.50
2019-03-25T01:52:22.786Z,44.17
2019-03-25T01:54:52.772Z,42.43
2019-03-25T01:57:22.841Z,43.90
2019-03-25T01:59:52.855Z,43.70
2019-03-25T02:02:23.103Z,43.00
2019-03-25T02:04:53.145Z,43.43
2019-03-25T02:07:23.119Z,42.40
2019-03-25T02:09:53.113Z,43.77
2019-03-25T02:12:23.091Z,44.00
2019-03-25T02:14:53.253Z,44.63
2019-03-25T02:17:23.248Z,43.57
2019-03-25T02:19:53.240Z,43.50
2019-03-25T02:22:23.223Z,43.23
2019-03-25T02:24:53.193Z,42.70
2019-03-25T02:27:23.223Z,41.80
2019-03-25T02:29:53.216Z,41.80
2019-03-25T02:32:23.226Z,41.50
2019-03-25T02:34:53.247Z,40.57
2019-03-25T02:37:23.240Z,37.33
2019-03-25T02:39:53.214Z,38.87
2019-03-25T02:42:23.269Z,39.23
2019-03-25T02:44:53.200Z,38.50
2019-03-25T02:47:23.261Z,37.30
2019-03-25T02:49:53.362Z,37.53
2019-03-25T02:52:23.484Z,38.67
2019-03-25T02:54:53.455Z,41.43
2019-03-25T02:57:23.583Z,37.27
2019-03-25T02:59:53.556Z,37.10
2019-03-25T03:02:23.568Z,39.13
2019-03-25T03:04:53.620Z,36.80
2019-03-25T03:07:23.662Z,35.13
2019-03-25T03:09:53.642Z,37.00
2019-03-25T03:12:23.883Z,35.00
2019-03-25T03:14:54.133Z,37.43
2019-03-25T03:17:24.179Z,34.17
2019-03-25T03:19:55.321Z,35.90
2019-03-25T03:22:25.484Z,45.80
2019-03-25T03:24:55.463Z,47.00
2019-03-25T03:27:25.481Z,46.85
2019-03-25T03:29:55.503Z,45.97
2019-03-25T03:32:25.477Z,45.50
2019-03-25T03:34:55.517Z,43.65
2019-03-25T03:37:25.489Z,45.52
2019-03-25T03:39:55.455Z,45.63
2019-03-25T03:42:25.848Z,45.85
2019-03-25T03:44:55.914Z,45.55
2019-03-25T03:47:25.875Z,46.23
2019-03-25T03:49:55.839Z,42.98
2019-03-25T03:52:26.045Z,44.67
2019-03-25T03:54:56.170Z,44.75
2019-03-25T03:57:26.474Z,44.70
2019-03-25T03:59:56.717Z,44.47
2019-03-25T04:02:26.988Z,43.85
2019-03-25T04:04:56.957Z,37.93
2019-03-25T04:07:26.997Z,28.17
2019-03-25T04:09:56.930Z,39.92
2019-03-25T04:12:26.952Z,42.15
2019-03-25T04:14:57.088Z,42.30
2019-03-25T04:17:27.086Z,44.25
2019-03-25T04:19:57.084Z,44.53
2019-03-25T04:22:27.064Z,34.08
2019-03-25T04:24:57.038Z,35.98
2019-03-25T04:27:27.012Z,37.40
2019-03-25T04:29:57.053Z,33.15
2019-03-25T04:32:27.153Z,33.83
2019-03-25T04:34:57.294Z,32.37
2019-03-25T04:37:27.299Z,31.30
2019-03-25T04:39:57.972Z,32.03
2019-03-25T04:42:28.085Z,31.40
2019-03-25T04:44:58.102Z,33.92
2019-03-25T04:47:28.117Z,34.75
2019-03-25T04:49:58.150Z,34.50
2019-03-25T04:52:28.134Z,32.73
2019-03-25T04:54:58.118Z,31.42
2019-03-25T04:57:28.122Z,30.97
2019-03-25T04:59:58.089Z,29.65
2019-03-25T05:02:28.204Z,30.02
2019-03-25T05:04:58.175Z,31.30
2019-03-25T05:07:28.195Z,33.58
2019-03-25T05:09:58.206Z,29.95
2019-03-25T05:12:28.425Z,28.50
2019-03-25T05:14:58.615Z,27.52
2019-03-25T05:17:28.695Z,29.42
2019-03-25T05:19:58.696Z,27.62
2019-03-25T05:22:28.676Z,26.17
2019-03-25T05:24:58.766Z,26.62
2019-03-25T05:27:28.757Z,22.67
2019-03-25T05:29:58.872Z,24.00
2019-03-25T05:32:28.925Z,18.75
2019-03-25T05:34:58.975Z,20.85
2019-03-25T05:37:28.993Z,20.75
2019-03-25T05:39:59.000Z,20.27
2019-03-25T05:42:29.085Z,19.05
2019-03-25T05:44:59.165Z,18.17
2019-03-25T05:47:29.305Z,19.70
2019-03-25T05:49:59.321Z,17.48
2019-03-25T05:52:29.329Z,17.75
2019-03-25T05:54:59.413Z,18.50
2019-03-25T05:57:29.437Z,15.93
2019-03-25T05:59:59.471Z,16.93
2019-03-25T06:02:29.483Z,17.00
2019-03-25T06:04:59.769Z,16.85
2019-03-25T06:07:29.795Z,16.45
2019-03-25T06:09:59.772Z,16.67
2019-03-25T06:12:29.791Z,16.05
2019-03-25T06:14:59.814Z,17.10
2019-03-25T06:17:29.849Z,15.80
2019-03-25T06:19:59.999Z,16.12
2019-03-25T06:22:29.991Z,15.80
2019-03-25T06:24:59.969Z,16.93
2019-03-25T06:27:29.941Z,16.25
2019-03-25T06:29:59.942Z,16.15
2019-03-25T06:32:30.065Z,15.90
2019-03-25T06:35:00.070Z,15.68
2019-03-25T06:37:30.190Z,16.52
2019-03-25T06:40:00.330Z,14.80
2019-03-25T06:42:30.351Z,15.53
2019-03-25T06:45:00.434Z,15.20
2019-03-25T06:47:30.390Z,14.53
2019-03-25T06:49:59.593Z,14.68
2019-03-25T06:52:28.834Z,16.32
2019-03-25T06:54:57.967Z,16.50
2019-03-25T06:57:27.146Z,13.93
2019-03-25T06:59:56.317Z,13.18
2019-03-25T07:02:25.439Z,12.95
2019-03-25T07:04:54.624Z,12.88
2019-03-25T07:07:24.750Z,12.95
2019-03-25T07:09:55.153Z,12.43
2019-03-25T07:12:24.726Z,12.07
2019-03-25T07:14:54.924Z,11.35
2019-03-25T07:17:24.996Z,9.80
2019-03-25T07:19:55.021Z,9.98
2019-03-25T07:22:24.265Z,11.10
2019-03-25T07:24:53.582Z,12.53
2019-03-25T07:27:22.742Z,11.25
2019-03-25T07:29:52.746Z,12.20
2019-03-25T07:32:22.801Z,10.98
2019-03-25T07:34:52.871Z,11.22
2019-03-25T07:37:23.776Z,12.10
2019-03-25T07:39:53.860Z,12.23
2019-03-25T07:42:23.020Z,11.68
2019-03-25T07:44:52.207Z,13.30
2019-03-25T07:47:21.391Z,11.40
2019-03-25T07:49:50.617Z,11.90
2019-03-25T07:52:20.831Z,10.10
2019-03-25T07:54:50.890Z,9.65
2019-03-25T07:57:20.967Z,9.10
2019-03-25T07:59:50.213Z,8.60
2019-03-25T08:02:19.386Z,9.03
2019-03-25T08:04:48.703Z,8.78
2019-03-25T08:07:18.790Z,9.00
2019-03-25T08:09:48.901Z,7.78
2019-03-25T08:12:19.230Z,7.78
2019-03-25T08:14:49.318Z,7.87
2019-03-25T08:17:19.493Z,7.92
2019-03-25T08:19:48.651Z,7.85
2019-03-25T08:22:17.864Z,7.05
2019-03-25T08:24:47.869Z,6.83
2019-03-25T08:27:17.891Z,9.05
2019-03-25T08:29:47.875Z,6.12
2019-03-25T08:32:18.377Z,6.97
2019-03-25T08:34:47.462Z,6.78
2019-03-25T08:37:16.699Z,6.37
2019-03-25T08:39:45.857Z,6.12
2019-03-25T08:42:15.499Z,6.20
2019-03-25T08:44:44.802Z,6.53
2019-03-25T08:47:14.949Z,5.83
2019-03-25T08:49:44.161Z,5.67
2019-03-25T08:52:13.349Z,5.47
2019-03-25T08:54:43.401Z,5.97
2019-03-25T08:57:13.533Z,5.83
2019-03-25T08:59:43.059Z,5.55
2019-03-25T09:02:13.235Z,5.97
2019-03-25T09:04:42.351Z,5.22
2019-03-25T09:07:11.623Z,5.62
2019-03-25T09:09:40.862Z,5.72
2019-03-25T09:12:09.981Z,5.70
2019-03-25T09:14:39.123Z,5.80
2019-03-25T09:17:08.587Z,5.53
2019-03-25T09:19:37.811Z,6.08
2019-03-25T09:22:08.296Z,4.87
2019-03-25T09:24:38.309Z,4.65
2019-03-25T09:27:08.334Z,4.20
2019-03-25T09:29:39.135Z,4.53
2019-03-25T09:32:09.178Z,4.87
2019-03-25T09:34:38.373Z,4.30
2019-03-25T09:37:08.383Z,5.05
2019-03-25T09:39:38.390Z,4.17
2019-03-25T09:42:08.460Z,4.40
2019-03-25T09:44:38.420Z,4.83
2019-03-25T09:47:08.458Z,3.98
2019-03-25T09:49:37.616Z,3.92
2019-03-25T09:52:07.616Z,3.60
2019-03-25T09:54:37.656Z,3.67
2019-03-25T09:57:06.759Z,3.52
2019-03-25T09:59:35.976Z,2.90
2019-03-25T10:02:05.250Z,3.45
2019-03-25T10:04:35.238Z,3.35
2019-03-25T10:07:05.273Z,3.50
2019-03-25T10:09:35.366Z,3.45
2019-03-25T10:12:05.545Z,3.90
2019-03-25T10:14:35.705Z,3.67
2019-03-25T10:17:05.684Z,3.45
2019-03-25T10:19:35.800Z,3.47
2019-03-25T10:22:06.091Z,3.92
2019-03-25T10:24:35.250Z,3.70
2019-03-25T10:27:04.486Z,3.47
2019-03-25T10:29:33.718Z,3.90
2019-03-25T10:32:04.005Z,3.55
2019-03-25T10:34:33.193Z,3.93
2019-03-25T10:37:03.253Z,3.17
2019-03-25T10:39:34.276Z,2.95
2019-03-25T10:42:04.298Z,3.42
2019-03-25T10:44:33.674Z,4.08
2019-03-25T10:47:03.636Z,3.22
2019-03-25T10:49:32.810Z,3.52
2019-03-25T10:52:02.764Z,3.40
2019-03-25T10:54:32.840Z,3.50
2019-03-25T10:57:03.024Z,3.83
2019-03-25T10:59:32.160Z,3.60
2019-03-25T11:02:02.184Z,3.60
2019-03-25T11:04:32.193Z,3.30
2019-03-25T11:07:02.246Z,3.30
2019-03-25T11:09:32.356Z,3.83
2019-03-25T11:12:02.438Z,3.40
2019-03-25T11:14:32.434Z,3.20
2019-03-25T11:17:01.634Z,3.87
2019-03-25T11:19:30.770Z,3.47
2019-03-25T11:22:00.752Z,2.93
2019-03-25T11:24:30.808Z,2.73
2019-03-25T11:27:00.844Z,4.13
2019-03-25T11:29:30.824Z,3.70
2019-03-25T11:32:01.049Z,3.67
2019-03-25T11:34:31.208Z,3.93
2019-03-25T11:37:00.322Z,3.73
2019-03-25T11:39:30.348Z,3.50
2019-03-25T11:41:59.526Z,3.27
2019-03-25T11:44:29.584Z,3.63
2019-03-25T11:46:59.616Z,3.63
2019-03-25T11:49:29.648Z,2.90
2019-03-25T11:51:59.604Z,3.58
2019-03-25T11:54:29.608Z,3.58
2019-03-25T11:56:59.597Z,3.35
2019-03-25T11:59:29.563Z,3.40
2019-03-25T12:01:59.564Z,3.65
2019-03-25T12:04:29.721Z,4.00
2019-03-25T12:06:58.890Z,3.57
2019-03-25T12:09:28.922Z,4.00
2019-03-25T12:11:59.021Z,3.87
2019-03-25T12:14:29.244Z,3.90
2019-03-25T12:16:59.428Z,3.73
2019-03-25T12:19:29.489Z,3.97
2019-03-25T12:21:59.582Z,3.97
2019-03-25T12:24:29.579Z,3.95
2019-03-25T12:26:59.592Z,4.05
2019-03-25T12:29:30.686Z,4.10
2019-03-25T12:32:00.882Z,3.83
2019-03-25T12:34:30.947Z,3.67
2019-03-25T12:37:00.904Z,4.00
2019-03-25T12:39:30.993Z,4.05
2019-03-25T12:42:01.387Z,3.65
2019-03-25T12:44:31.472Z,4.50
2019-03-25T12:47:01.489Z,3.62
2019-03-25T12:49:31.491Z,3.70
2019-03-25T12:52:00.680Z,4.17
2019-03-25T12:54:30.693Z,4.22
2019-03-25T12:57:00.752Z,3.80
2019-03-25T12:59:40.829Z,4.28
2019-03-25T13:02:02.510Z,3.95
2019-03-25T13:04:32.504Z,4.00
2019-03-25T13:07:01.714Z,4.20
2019-03-25T13:09:30.922Z,3.80
2019-03-25T13:12:01.236Z,3.77
2019-03-25T13:14:31.378Z,4.30
2019-03-25T13:17:01.503Z,3.40
2019-03-25T13:19:31.732Z,3.40
2019-03-25T13:22:01.786Z,4.37
2019-03-25T13:24:31.843Z,3.30
2019-03-25T13:27:11.217Z,4.42
2019-03-25T13:29:51.767Z,4.35
2019-03-25T13:32:12.308Z,4.47
2019-03-25T13:34:41.583Z,5.00
2019-03-25T13:37:10.741Z,4.10
2019-03-25T13:39:39.896Z,4.00
2019-03-25T13:42:09.143Z,4.17
2019-03-25T13:44:39.138Z,4.45
2019-03-25T13:47:09.304Z,4.17
2019-03-25T13:49:39.563Z,3.95
2019-03-25T13:52:08.948Z,4.40
2019-03-25T13:54:39.266Z,4.50
2019-03-25T13:57:09.349Z,4.03
2019-03-25T13:59:39.507Z,3.62
2019-03-25T14:02:09.771Z,4.17
2019-03-25T14:04:39.905Z,4.17
2019-03-25T14:07:09.878Z,4.33
2019-03-25T14:09:39.899Z,3.60
2019-03-25T14:12:09.199Z,3.80
2019-03-25T14:14:38.428Z,3.50
2019-03-25T14:17:07.672Z,3.33
2019-03-25T14:19:37.631Z,3.23
2019-03-25T14:22:07.689Z,3.60
2019-03-25T14:24:37.657Z,3.50
2019-03-25T14:27:07.630Z,4.17
2019-03-25T14:29:37.660Z,3.40
2019-03-25T14:32:07.754Z,4.17
2019-03-25T14:34:44.662Z,4.00
2019-03-25T14:37:09.350Z,4.93
2019-03-25T14:39:39.361Z,3.57
2019-03-25T14:42:09.376Z,4.33
2019-03-25T14:44:39.531Z,5.07
2019-03-25T14:47:09.670Z,5.23
2019-03-25T14:49:39.713Z,5.80
2019-03-25T14:52:09.681Z,5.47
2019-03-25T14:54:40.246Z,4.90
2019-03-25T14:57:10.253Z,4.97
2019-03-25T14:59:40.508Z,5.60
2019-03-25T15:02:10.822Z,5.30
2019-03-25T15:04:40.942Z,5.60
2019-03-25T15:07:11.108Z,5.70
2019-03-25T15:09:41.149Z,4.60
2019-03-25T15:12:11.213Z,5.13
2019-03-25T15:14:41.286Z,5.70
2019-03-25T15:17:11.599Z,5.07
2019-03-25T15:19:41.621Z,7.40
2019-03-25T15:22:11.645Z,8.00
2019-03-25T15:24:41.720Z,8.30
2019-03-25T15:27:11.800Z,7.93
2019-03-25T15:29:41.919Z,12.00
2019-03-25T15:32:11.949Z,9.00
2019-03-25T15:34:41.957Z,10.10
2019-03-25T15:37:12.013Z,10.80
2019-03-25T15:39:46.627Z,11.83
2019-03-25T15:42:13.797Z,12.40
2019-03-25T15:44:43.791Z,16.00
2019-03-25T15:47:14.137Z,11.67
2019-03-25T15:49:44.185Z,10.57
2019-03-25T15:52:14.191Z,8.80
2019-03-25T15:54:44.201Z,9.20
2019-03-25T15:57:14.203Z,8.80
2019-03-25T15:59:44.323Z,8.03
2019-03-25T16:02:14.341Z,7.53
2019-03-25T16:04:44.309Z,8.00
2019-03-25T16:07:14.335Z,6.80
2019-03-25T16:09:44.334Z,7.83
2019-03-25T16:12:14.365Z,7.17
2019-03-25T16:14:44.534Z,7.57
2019-03-25T16:17:14.592Z,7.77
2019-03-25T16:19:44.616Z,8.33
2019-03-25T16:22:14.709Z,8.40
2019-03-25T16:24:44.814Z,9.90
2019-03-25T16:27:15.186Z,8.60
2019-03-25T16:29:45.285Z,8.87
2019-03-25T16:32:15.318Z,9.50
2019-03-25T16:34:45.494Z,9.20
2019-03-25T16:37:15.964Z,9.67
2019-03-25T16:39:45.932Z,9.40
2019-03-25T16:42:19.228Z,12.37
2019-03-25T16:44:49.290Z,10.97
2019-03-25T16:47:19.260Z,9.13
2019-03-25T16:49:49.330Z,7.53
2019-03-25T16:52:19.294Z,8.10
2019-03-25T16:54:49.465Z,7.07
2019-03-25T16:57:19.830Z,8.23
2019-03-25T16:59:49.969Z,8.23
2019-03-25T17:02:19.947Z,8.90
2019-03-25T17:04:50.026Z,8.03
2019-03-25T17:07:20.242Z,8.23
2019-03-25T17:09:50.434Z,8.87
2019-03-25T17:12:20.781Z,8.53
2019-03-25T17:14:50.920Z,9.50
2019-03-25T17:17:22.737Z,9.33
2019-03-25T17:19:52.726Z,10.37
2019-03-25T17:22:49.742Z,10.27
2019-03-25T17:25:19.923Z,9.13
2019-03-25T17:27:50.207Z,9.77
2019-03-25T17:30:21.339Z,10.37
2019-03-25T17:32:51.574Z,9.23
2019-03-25T17:35:21.673Z,10.03
2019-03-25T17:37:51.892Z,10.43
2019-03-25T17:40:22.055Z,11.23
2019-03-25T17:42:52.231Z,11.53
2019-03-25T17:45:22.439Z,11.63
2019-03-25T17:47:52.416Z,11.33
2019-03-25T17:50:22.456Z,9.53
2019-03-25T17:52:52.444Z,8.60
2019-03-25T17:55:22.448Z,8.43
2019-03-25T17:57:52.493Z,8.43
2019-03-25T18:01:00.411Z,7.20
2019-03-25T18:03:30.462Z,7.10
2019-03-25T18:06:00.511Z,6.87
2019-03-25T18:08:30.493Z,29.87
2019-03-25T18:11:00.789Z,14.77
2019-03-25T18:13:30.776Z,7.70
2019-03-25T18:16:00.829Z,6.93
2019-03-25T18:18:30.801Z,8.53
2019-03-25T18:21:00.862Z,7.97
2019-03-25T18:23:30.847Z,8.50
2019-03-25T18:26:01.020Z,8.47
2019-03-25T18:28:31.015Z,10.53
2019-03-25T18:31:01.329Z,10.13
2019-03-25T18:33:31.329Z,8.90
2019-03-25T18:36:01.332Z,8.73
2019-03-25T18:38:31.346Z,9.83
2019-03-25T18:41:01.412Z,8.70
2019-03-25T18:43:31.495Z,9.50
2019-03-25T18:46:01.498Z,9.07
2019-03-25T18:48:31.533Z,10.00
2019-03-25T18:51:01.610Z,10.33
2019-03-25T18:53:31.619Z,10.70
2019-03-25T18:56:01.627Z,10.00
2019-03-25T18:58:31.819Z,10.40
2019-03-25T19:01:02.175Z,11.23
2019-03-25T19:03:33.105Z,14.67
2019-03-25T19:06:03.403Z,13.47
2019-03-25T19:08:33.423Z,12.17
2019-03-25T19:11:03.489Z,11.70
2019-03-25T19:13:33.682Z,12.33
2019-03-25T19:16:03.707Z,12.87
2019-03-25T19:18:33.669Z,11.93
2019-03-25T19:21:03.742Z,12.37
2019-03-25T19:23:33.821Z,13.80
2019-03-25T19:26:03.810Z,15.77
2019-03-25T19:28:33.908Z,15.57
2019-03-25T19:31:04.018Z,22.10
2019-03-25T19:33:34.075Z,18.97
2019-03-25T19:36:04.123Z,13.90
2019-03-25T19:38:34.167Z,17.77
2019-03-25T19:41:04.151Z,17.03
2019-03-25T19:43:34.115Z,17.53
2019-03-25T19:46:04.122Z,17.77
2019-03-25T19:48:34.301Z,17.87
2019-03-25T19:51:04.519Z,16.87
2019-03-25T19:53:34.576Z,17.37
2019-03-25T19:56:04.843Z,17.53
2019-03-25T19:58:34.842Z,16.73
2019-03-25T20:01:04.970Z,17.43
2019-03-25T20:03:34.954Z,17.30
2019-03-25T20:06:05.039Z,16.17
2019-03-25T20:08:35.057Z,17.20
2019-03-25T20:11:05.033Z,17.93
2019-03-25T20:13:35.116Z,16.43
2019-03-25T20:16:05.153Z,17.30
2019-03-25T20:18:35.264Z,18.40
2019-03-25T20:21:05.365Z,18.97
2019-03-25T20:23:35.384Z,18.63
2019-03-25T20:26:05.793Z,20.17
2019-03-25T20:28:35.778Z,20.63
2019-03-25T20:31:05.888Z,25.47
2019-03-25T20:33:35.984Z,23.90
2019-03-25T20:36:06.078Z,22.40
2019-03-25T20:38:36.072Z,23.40
2019-03-25T20:41:06.299Z,24.23
2019-03-25T20:43:36.361Z,24.10
2019-03-25T20:46:06.359Z,23.13
2019-03-25T20:48:36.348Z,26.00
2019-03-25T20:51:06.360Z,25.17
2019-03-25T20:53:36.393Z,21.63
2019-03-25T20:56:06.479Z,23.10
2019-03-25T20:58:36.529Z,24.60
2019-03-25T21:01:06.803Z,23.50
2019-03-25T21:03:36.801Z,23.73
2019-03-25T21:06:07.402Z,21.83
2019-03-25T21:08:37.427Z,22.83
2019-03-25T21:11:07.498Z,22.40
2019-03-25T21:13:37.607Z,23.67
2019-03-25T21:16:08.107Z,23.73
2019-03-25T21:18:38.197Z,23.37
2019-03-25T21:21:08.202Z,25.63
2019-03-25T21:23:38.246Z,26.97
2019-03-25T21:26:10.930Z,22.37
2019-03-25T21:28:39.992Z,23.43
2019-03-25T21:31:10.199Z,22.33
2019-03-25T21:33:40.197Z,24.80
2019-03-25T21:36:10.211Z,25.40
2019-03-25T21:38:40.267Z,24.43
2019-03-25T21:41:10.240Z,24.90
2019-03-25T21:43:40.423Z,24.03
2019-03-25T21:46:10.452Z,34.90
2019-03-25T21:48:40.540Z,26.47
2019-03-25T21:51:10.607Z,24.63
2019-03-25T21:53:40.547Z,26.33
2019-03-25T21:56:10.590Z,25.57
2019-03-25T21:58:40.634Z,24.70
2019-03-25T22:01:10.766Z,24.07
2019-03-25T22:03:40.759Z,23.73
2019-03-25T22:06:10.805Z,25.97
2019-03-25T22:08:40.801Z,26.30
2019-03-25T22:11:10.779Z,25.40
2019-03-25T22:13:40.851Z,25.20
2019-03-25T22:16:10.904Z,26.90
2019-03-25T22:18:40.896Z,25.60
2019-03-25T22:21:10.867Z,25.73
2019-03-25T22:23:40.908Z,25.63
2019-03-25T22:26:10.937Z,26.73
2019-03-25T22:28:41.159Z,26.47
2019-03-25T22:31:11.136Z,26.43
2019-03-25T22:33:41.133Z,20.10
2019-03-25T22:36:11.136Z,23.33
2019-03-25T22:38:41.095Z,25.13
2019-03-25T22:41:11.159Z,23.70
2019-03-25T22:43:41.185Z,23.73
2019-03-25T22:46:11.178Z,23.50
2019-03-25T22:48:41.133Z,23.60
2019-03-25T22:51:11.093Z,22.67
2019-03-25T22:53:41.103Z,22.87
2019-03-25T22:56:11.098Z,22.70
2019-03-25T22:58:41.099Z,23.13
2019-03-25T23:01:11.314Z,24.70
2019-03-25T23:03:41.527Z,22.73
2019-03-25T23:06:11.487Z,22.93
2019-03-25T23:08:41.613Z,23.17
2019-03-25T23:11:11.955Z,23.93
2019-03-25T23:13:42.069Z,24.57
2019-03-25T23:16:12.597Z,23.97
2019-03-25T23:18:42.797Z,23.23
2019-03-25T23:21:12.925Z,23.43
2019-03-25T23:23:42.930Z,24.90
2019-03-25T23:26:12.907Z,23.03
2019-03-25T23:28:43.005Z,23.53
2019-03-25T23:31:13.147Z,22.90
2019-03-25T23:33:52.184Z,22.67
2019-03-25T23:36:14.852Z,23.73
2019-03-25T23:38:44.873Z,21.70
2019-03-25T23:41:14.885Z,21.77
2019-03-25T23:43:44.899Z,22.33
2019-03-25T23:46:14.916Z,20.80
2019-03-25T23:48:44.887Z,20.93
2019-03-25T23:51:14.871Z,23.07
2019-03-25T23:53:44.863Z,22.00
2019-03-25T23:56:14.828Z,21.63
2019-03-25T23:58:44.781Z,22.80
